Time;durP1;ratioP1;P1;durP2;ratioP2;P2;SDS_P1;SDS_P2;PMS_P1;PMS_P2;Temp;Humidity;BMP_temperature;BMP_pressure;BME280_temperature;BME280_humidity;BME280_pressure;Samples;Min_cycle;Max_cycle;Signal;HPM_P1;HPM_P2
2022/04/21 00:00:13;;;;;;;3.38;2.92;;;14.70;44.30;;;;;;5071348;28;20122;-47
2022/04/21 00:02:45;;;;;;;3.13;2.70;;;14.60;44.40;;;;;;5065807;28;20040;-46
2022/04/21 00:05:14;;;;;;;3.80;3.08;;;14.60;44.50;;;;;;5069240;28;20059;-48
2022/04/21 00:07:46;;;;;;;3.55;3.22;;;14.50;44.50;;;;;;5070903;28;20492;-48
2022/04/21 00:10:13;;;;;;;4.35;3.33;;;14.40;44.60;;;;;;5056938;28;20400;-47
2022/04/21 00:12:40;;;;;;;3.40;2.95;;;14.30;44.70;;;;;;5046967;28;20040;-47
2022/04/21 00:15:08;;;;;;;3.97;3.47;;;14.30;44.90;;;;;;5070013;28;20032;-47
2022/04/21 00:17:36;;;;;;;3.45;3.10;;;14.20;45.10;;;;;;5071209;28;20094;-46
2022/04/21 00:20:06;;;;;;;3.50;3.28;;;14.10;45.10;;;;;;5065445;22;20140;-47
2022/04/21 00:25:20;;;;;;;3.17;2.83;;;13.90;45.30;;;;;;5049469;28;20099;-47
2022/04/21 00:27:47;;;;;;;3.13;2.83;;;13.90;45.30;;;;;;5049452;28;20075;-47
2022/04/21 00:30:19;;;;;;;3.15;2.95;;;13.80;45.60;;;;;;5046312;28;20065;-49
2022/04/21 00:32:46;;;;;;;3.30;3.00;;;13.70;45.70;;;;;;5047868;28;20041;-45
2022/04/21 00:35:16;;;;;;;4.72;3.25;;;13.70;46.00;;;;;;5040323;28;20102;-46
2022/04/21 00:37:45;;;;;;;2.80;2.60;;;13.60;46.20;;;;;;5041546;28;20047;-48
2022/04/21 00:40:15;;;;;;;3.55;3.25;;;13.50;46.20;;;;;;5039611;28;20061;-48
2022/04/21 00:42:45;;;;;;;3.80;3.50;;;13.50;46.30;;;;;;5030430;28;20048;-46
2022/04/21 00:45:13;;;;;;;3.70;3.25;;;13.40;46.40;;;;;;5029420;28;20049;-49
2022/04/21 00:47:42;;;;;;;3.58;3.25;;;13.40;46.60;;;;;;5039382;28;20041;-46
2022/04/21 00:50:18;;;;;;;4.40;2.92;;;13.30;46.60;;;;;;5046728;28;20037;-48
2022/04/21 00:52:46;;;;;;;3.55;3.22;;;13.20;47.40;;;;;;5045062;28;20084;-46
2022/04/21 00:55:14;;;;;;;3.35;2.92;;;13.20;46.70;;;;;;5046241;28;20041;-51
2022/04/21 00:57:48;;;;;;;4.07;3.08;;;13.20;46.90;;;;;;5048555;28;20041;-45
2022/04/21 01:00:15;;;;;;;2.63;2.42;;;13.10;47.10;;;;;;5046848;28;20037;-52
2022/04/21 01:02:49;;;;;;;3.00;2.80;;;13.00;47.00;;;;;;5043944;28;20377;-46
2022/04/21 01:05:25;;;;;;;3.63;3.35;;;13.00;47.00;;;;;;5048414;28;20049;-52
2022/04/21 01:07:54;;;;;;;4.40;2.78;;;12.90;47.60;;;;;;5040539;28;20155;-48
2022/04/21 01:10:25;;;;;;;3.05;2.75;;;12.90;47.30;;;;;;5043836;28;20041;-47
2022/04/21 01:12:57;;;;;;;2.78;2.58;;;12.80;47.80;;;;;;5038352;28;20116;-48
2022/04/21 01:15:26;;;;;;;3.22;2.92;;;12.80;47.50;;;;;;5032040;28;20106;-51
2022/04/21 01:17:54;;;;;;;3.20;2.97;;;12.70;48.00;;;;;;5043975;28;20437;-49
2022/04/21 01:20:27;;;;;;;3.83;3.35;;;12.70;47.90;;;;;;5049486;28;20416;-50
2022/04/21 01:22:54;;;;;;;4.35;3.38;;;12.60;48.40;;;;;;5035560;28;20049;-50
2022/04/21 01:25:24;;;;;;;4.50;3.60;;;12.60;48.20;;;;;;5034871;28;20044;-50
2022/04/21 01:27:57;;;;;;;3.80;3.50;;;12.50;48.20;;;;;;5044129;28;20045;-48
2022/04/21 01:30:28;;;;;;;3.75;3.45;;;12.50;48.60;;;;;;5041111;28;20095;-50
2022/04/21 01:32:56;;;;;;;4.47;4.07;;;12.50;48.70;;;;;;5050038;28;20040;-47
2022/04/21 01:35:23;;;;;;;3.95;3.55;;;12.50;48.50;;;;;;5047964;28;20075;-52
2022/04/21 01:43:21;;;;;;;4.55;3.45;;;12.30;48.60;;;;;;5049969;28;20497;-49
2022/04/21 01:45:50;;;;;;;3.90;3.60;;;12.30;48.60;;;;;;5046129;28;20056;-50
2022/04/21 01:48:19;;;;;;;6.13;4.03;;;12.30;49.20;;;;;;5046011;28;20048;-48
2022/04/21 01:50:48;;;;;;;4.55;4.00;;;12.20;48.80;;;;;;5043182;28;20037;-47
2022/04/21 01:53:14;;;;;;;5.00;3.35;;;12.20;49.00;;;;;;5050133;28;20041;-50
2022/04/21 01:55:41;;;;;;;3.65;3.30;;;12.20;49.00;;;;;;5043790;28;20045;-47
2022/04/21 01:58:11;;;;;;;6.07;3.38;;;12.20;49.20;;;;;;5041598;28;20501;-48
2022/04/21 02:00:38;;;;;;;3.80;3.40;;;12.20;49.20;;;;;;5029613;28;20391;-48
2022/04/21 02:03:05;;;;;;;4.07;3.40;;;12.10;49.30;;;;;;5032003;28;20560;-52
2022/04/21 02:05:33;;;;;;;3.80;3.50;;;12.10;49.30;;;;;;5044449;28;20103;-50
2022/04/21 02:08:04;;;;;;;3.50;3.20;;;12.10;49.40;;;;;;5037943;28;20044;-48
2022/04/21 02:10:31;;;;;;;4.22;3.83;;;12.10;49.70;;;;;;5029059;28;20406;-51
2022/04/21 02:13:00;;;;;;;3.80;3.28;;;12.00;49.40;;;;;;5036610;28;20098;-46
2022/04/21 02:15:27;;;;;;;5.15;3.78;;;12.00;49.70;;;;;;5046972;28;20041;-46
2022/04/21 02:17:54;;;;;;;4.03;3.60;;;12.00;49.50;;;;;;5037475;28;20072;-50
2022/04/21 02:20:26;;;;;;;3.60;3.30;;;12.00;49.60;;;;;;5040137;28;20033;-48
2022/04/21 02:22:55;;;;;;;3.58;3.38;;;11.90;49.60;;;;;;5041261;28;20099;-51
2022/04/21 02:25:26;;;;;;;3.90;3.40;;;11.90;49.50;;;;;;5050163;28;20209;-46
2022/04/21 02:27:56;;;;;;;4.95;3.30;;;11.90;49.50;;;;;;5045137;28;20177;-51
2022/04/21 02:30:22;;;;;;;4.03;3.63;;;11.80;49.50;;;;;;5051429;28;20053;-50
2022/04/21 02:32:54;;;;;;;3.30;3.00;;;11.80;49.60;;;;;;5032103;28;20060;-48
2022/04/21 02:35:21;;;;;;;4.85;3.55;;;11.80;49.50;;;;;;5051036;28;20055;-51
2022/04/21 02:37:52;;;;;;;3.38;3.05;;;11.70;49.50;;;;;;5045139;28;20492;-47
2022/04/21 02:40:19;;;;;;;3.85;3.55;;;11.70;49.60;;;;;;5043707;28;20041;-51
2022/04/21 02:42:46;;;;;;;3.88;3.58;;;11.60;49.60;;;;;;5047111;28;20670;-50
2022/04/21 02:45:14;;;;;;;3.72;3.40;;;11.60;49.80;;;;;;5043444;28;20053;-46
2022/04/21 02:47:48;;;;;;;4.78;3.83;;;11.50;49.70;;;;;;5052450;28;20128;-48
2022/04/21 02:50:17;;;;;;;3.83;2.83;;;11.50;49.80;;;;;;5050407;28;20072;-48
2022/04/21 02:52:46;;;;;;;4.75;3.00;;;11.40;49.90;;;;;;5049705;28;20099;-46
2022/04/21 02:58:04;;;;;;;3.58;3.28;;;11.40;50.20;;;;;;5051137;28;20754;-50
2022/04/21 03:00:39;;;;;;;3.63;3.33;;;11.30;49.90;;;;;;5047435;28;20041;-49
2022/04/21 03:03:10;;;;;;;4.10;3.70;;;11.20;50.10;;;;;;5048759;28;20041;-48
2022/04/21 03:05:42;;;;;;;3.58;3.25;;;11.20;50.40;;;;;;5043979;28;20052;-50
2022/04/21 03:08:12;;;;;;;3.60;3.30;;;11.10;50.10;;;;;;5051870;28;20037;-48
2022/04/21 03:10:39;;;;;;;3.65;3.35;;;11.10;50.50;;;;;;5027834;28;20068;-47
2022/04/21 03:13:09;;;;;;;3.83;3.42;;;11.10;50.30;;;;;;5041031;28;20045;-48
2022/04/21 03:15:35;;;;;;;5.28;4.03;;;11.00;50.50;;;;;;5046218;28;20065;-46
2022/04/21 03:18:02;;;;;;;3.60;3.30;;;11.00;50.50;;;;;;5032073;28;20048;-50
2022/04/21 03:26:06;;;;;;;4.43;3.10;;;10.90;51.00;;;;;;5050316;28;20033;-52
2022/04/21 03:28:34;;;;;;;4.10;3.67;;;10.80;50.70;;;;;;5047777;28;20273;-49
2022/04/21 03:31:03;;;;;;;5.93;3.60;;;10.80;50.70;;;;;;5043955;28;20037;-48
2022/04/21 03:33:30;;;;;;;4.63;3.72;;;10.80;50.70;;;;;;5052082;28;20052;-49
2022/04/21 03:36:04;;;;;;;6.18;3.35;;;10.70;50.90;;;;;;5049246;28;20094;-53
2022/04/21 03:38:37;;;;;;;3.55;3.15;;;10.70;51.20;;;;;;5041124;28;20041;-47
2022/04/21 03:41:07;;;;;;;3.55;3.25;;;10.70;51.00;;;;;;5051904;28;20037;-50
2022/04/21 03:43:37;;;;;;;4.07;3.70;;;10.60;51.00;;;;;;5044349;28;20111;-50
2022/04/21 03:46:07;;;;;;;4.68;3.70;;;10.60;51.10;;;;;;5050421;28;20045;-49
2022/04/21 03:48:48;;;;;;;4.00;3.60;;;10.60;51.30;;;;;;5043911;28;20041;-49
2022/04/21 03:51:15;;;;;;;5.05;3.92;;;10.60;51.30;;;;;;5043348;28;20049;-48
2022/04/21 03:53:46;;;;;;;4.03;3.63;;;10.50;51.30;;;;;;5051722;28;20460;-48
2022/04/21 03:56:13;;;;;;;4.05;3.75;;;10.50;51.60;;;;;;5044789;28;20044;-49
2022/04/21 03:58:50;;;;;;;4.38;3.70;;;10.50;50.80;;;;;;5047067;28;20412;-47
2022/04/21 04:01:17;;;;;;;3.50;3.22;;;10.40;51.40;;;;;;5024626;28;20122;-51
2022/04/21 04:03:48;;;;;;;4.68;3.83;;;10.40;51.50;;;;;;5051649;28;20071;-47
2022/04/21 04:11:55;;;;;;;4.05;3.65;;;10.30;51.70;;;;;;5037184;28;20041;-49
2022/04/21 04:14:25;;;;;;;3.92;3.53;;;10.30;51.90;;;;;;5046818;28;20048;-55
2022/04/21 04:16:55;;;;;;;4.38;3.97;;;10.30;52.00;;;;;;5043153;28;20428;-48
2022/04/21 04:19:22;;;;;;;4.07;3.67;;;10.30;52.00;;;;;;5043207;28;20119;-46
2022/04/21 04:21:49;;;;;;;4.03;3.70;;;10.20;51.90;;;;;;5042661;28;20045;-50
2022/04/21 04:24:18;;;;;;;5.57;4.22;;;10.20;51.80;;;;;;5041893;28;20060;-49
2022/04/21 04:26:46;;;;;;;4.63;4.22;;;10.20;51.90;;;;;;5045208;28;20037;-51
2022/04/21 04:29:22;;;;;;;5.22;4.72;;;10.10;51.90;;;;;;5036638;28;20045;-46
2022/04/21 04:31:53;;;;;;;4.85;4.40;;;10.10;52.00;;;;;;5041278;28;20056;-53
2022/04/21 04:34:21;;;;;;;4.43;4.03;;;10.10;52.60;;;;;;5021618;28;20052;-52
2022/04/21 04:36:48;;;;;;;6.22;4.35;;;10.10;52.30;;;;;;5043570;28;20248;-49
2022/04/21 04:39:15;;;;;;;5.03;3.85;;;10.00;52.40;;;;;;5041471;28;20052;-50
2022/04/21 04:44:30;;;;;;;4.90;3.78;;;10.00;52.40;;;;;;5030682;28;20048;-51
2022/04/21 04:46:57;;;;;;;4.47;4.07;;;10.00;52.40;;;;;;5046765;28;20447;-51
2022/04/21 04:49:24;;;;;;;4.63;4.07;;;10.00;52.50;;;;;;5042288;28;20065;-46
2022/04/21 04:51:51;;;;;;;3.78;3.47;;;9.90;52.50;;;;;;5044682;28;20034;-52
2022/04/21 04:54:18;;;;;;;4.07;3.67;;;10.00;52.70;;;;;;5044317;28;20049;-48
2022/04/21 04:56:46;;;;;;;5.90;3.75;;;10.00;52.80;;;;;;5038191;28;20061;-51
2022/04/21 04:59:13;;;;;;;5.03;4.32;;;9.90;52.90;;;;;;5035531;28;20680;-50
2022/04/21 05:01:45;;;;;;;4.63;4.18;;;9.90;52.90;;;;;;5036549;28;20041;-50
2022/04/21 05:04:20;;;;;;;4.63;3.65;;;9.90;53.50;;;;;;5045138;28;20048;-47
2022/04/21 05:06:48;;;;;;;4.38;3.97;;;9.90;53.80;;;;;;5043594;28;20041;-48
2022/04/21 05:09:17;;;;;;;4.15;3.70;;;9.90;53.20;;;;;;5040832;28;20128;-48
2022/04/21 05:11:50;;;;;;;5.88;4.10;;;9.90;53.40;;;;;;5035944;28;20029;-50
2022/04/21 05:14:20;;;;;;;4.97;4.57;;;9.90;53.60;;;;;;5030833;28;20041;-48
2022/04/21 05:16:47;;;;;;;8.15;4.47;;;9.90;53.50;;;;;;5038214;28;20041;-51
2022/04/21 05:19:16;;;;;;;5.38;4.32;;;10.00;53.70;;;;;;5035628;28;20061;-51
2022/04/21 05:21:44;;;;;;;5.43;4.15;;;9.90;53.80;;;;;;5040695;28;20047;-51
2022/04/21 05:24:11;;;;;;;7.40;4.18;;;9.90;53.70;;;;;;5043479;28;20382;-49
2022/04/21 05:26:40;;;;;;;5.82;4.72;;;10.00;53.90;;;;;;5039734;28;20048;-49
2022/04/21 05:31:58;;;;;;;6.15;4.80;;;10.00;54.30;;;;;;5042789;28;20041;-50
2022/04/21 05:34:27;;;;;;;5.45;4.32;;;10.00;54.70;;;;;;5023658;28;20576;-54
2022/04/21 05:36:54;;;;;;;5.72;4.00;;;10.10;54.30;;;;;;5025693;28;20092;-51
2022/04/21 05:39:22;;;;;;;5.28;4.45;;;10.10;54.40;;;;;;5030463;28;20468;-48
2022/04/21 05:41:52;;;;;;;5.38;4.85;;;10.10;54.60;;;;;;5040617;28;20777;-46
2022/04/21 05:44:19;;;;;;;5.07;4.57;;;10.20;54.90;;;;;;5038852;28;20056;-51
2022/04/21 05:46:47;;;;;;;5.95;5.20;;;10.20;54.90;;;;;;5039981;28;20036;-51
2022/04/21 05:49:14;;;;;;;5.47;5.00;;;10.20;54.90;;;;;;5038442;28;20110;-50
2022/04/21 05:51:46;;;;;;;6.53;5.22;;;10.30;55.10;;;;;;5048883;28;20048;-49
2022/04/21 05:54:14;;;;;;;5.25;4.38;;;10.30;55.20;;;;;;5033792;28;20099;-48
2022/04/21 05:56:41;;;;;;;5.55;4.85;;;10.40;55.40;;;;;;5031711;28;20045;-52
2022/04/21 05:59:08;;;;;;;5.68;4.63;;;10.40;55.30;;;;;;5043890;28;20087;-49
2022/04/21 06:01:36;;;;;;;7.53;5.40;;;10.50;55.40;;;;;;5043390;28;20091;-48
2022/04/21 06:04:03;;;;;;;5.72;5.07;;;10.50;55.60;;;;;;5049228;28;20036;-51
2022/04/21 06:06:30;;;;;;;6.97;5.10;;;10.60;55.80;;;;;;5048482;28;20037;-49
2022/04/21 06:08:57;;;;;;;5.57;5.03;;;10.60;55.90;;;;;;5040314;28;20583;-52
2022/04/21 06:11:24;;;;;;;7.07;5.18;;;10.70;56.00;;;;;;5042546;28;20095;-52
2022/04/21 06:13:51;;;;;;;6.05;5.45;;;10.70;56.20;;;;;;5046725;28;20047;-49
2022/04/21 06:16:18;;;;;;;8.05;5.85;;;10.80;56.40;;;;;;5041019;28;20041;-50
2022/04/21 06:18:45;;;;;;;7.05;5.82;;;10.80;56.40;;;;;;5017973;28;20050;-50
2022/04/21 06:21:11;;;;;;;7.63;6.25;;;10.90;56.30;;;;;;5031032;28;20041;-50
2022/04/21 06:23:38;;;;;;;6.15;5.55;;;11.00;56.50;;;;;;5060672;22;20047;-52
2022/04/21 06:26:05;;;;;;;7.93;5.45;;;11.10;56.60;;;;;;5065477;28;20037;-53
2022/04/21 06:28:35;;;;;;;8.95;5.72;;;11.10;56.40;;;;;;5045969;28;20041;-50
2022/04/21 06:31:02;;;;;;;10.40;5.97;;;11.30;56.50;;;;;;5072609;28;20033;-46
2022/04/21 06:33:32;;;;;;;7.55;6.00;;;11.30;56.20;;;;;;5075713;28;20032;-48
2022/04/21 06:36:00;;;;;;;6.82;5.57;;;11.50;56.50;;;;;;5079035;28;20059;-54
2022/04/21 06:38:27;;;;;;;7.72;6.05;;;11.50;56.40;;;;;;5082151;28;20116;-53
2022/04/21 06:40:55;;;;;;;9.45;6.00;;;11.60;55.90;;;;;;5087056;28;20441;-49
2022/04/21 06:48:57;;;;;;;7.65;5.55;;;11.90;55.60;;;;;;5085022;28;20047;-47
2022/04/21 06:51:27;;;;;;;8.20;6.10;;;12.00;55.70;;;;;;5085563;28;20064;-47
2022/04/21 06:53:54;;;;;;;7.03;5.20;;;12.10;55.40;;;;;;5078533;28;20036;-51
2022/04/21 06:56:21;;;;;;;7.80;4.50;;;12.20;54.70;;;;;;5083404;28;20568;-50
2022/04/21 06:58:53;;;;;;;8.10;4.60;;;12.20;54.30;;;;;;5081264;28;20048;-50
2022/04/21 07:01:20;;;;;;;7.43;4.60;;;12.30;54.20;;;;;;5073834;28;20081;-51
2022/04/21 07:03:46;;;;;;;6.63;4.80;;;12.40;53.70;;;;;;5074439;28;20051;-47
2022/04/21 07:06:13;;;;;;;5.50;4.90;;;12.50;53.50;;;;;;5083861;28;20052;-50
2022/04/21 07:08:40;;;;;;;8.18;4.88;;;12.60;53.40;;;;;;5077489;28;20036;-48
2022/04/21 07:11:07;;;;;;;7.47;5.03;;;12.70;53.00;;;;;;5071476;28;20068;-47
2022/04/21 07:13:33;;;;;;;4.78;4.28;;;12.80;52.70;;;;;;5085835;28;20119;-51
2022/04/21 07:16:00;;;;;;;7.80;5.18;;;12.90;52.60;;;;;;5090088;28;20042;-48
2022/04/21 07:18:27;;;;;;;7.88;4.68;;;12.90;52.50;;;;;;5084082;28;20044;-51
2022/04/21 07:20:54;;;;;;;8.18;5.15;;;13.00;51.60;;;;;;5087522;28;20097;-49
2022/04/21 07:23:21;;;;;;;6.85;4.35;;;13.10;51.10;;;;;;5085135;28;20044;-48
2022/04/21 07:25:47;;;;;;;7.30;4.45;;;13.20;50.70;;;;;;5090701;28;20085;-50
2022/04/21 07:28:14;;;;;;;11.88;4.63;;;13.30;50.60;;;;;;5082664;28;20416;-51
2022/04/21 07:30:41;;;;;;;6.43;5.03;;;13.30;50.50;;;;;;5088447;28;20044;-47
2022/04/21 07:33:08;;;;;;;9.85;5.80;;;13.40;50.60;;;;;;5089164;28;20036;-46
2022/04/21 07:35:35;;;;;;;10.80;5.38;;;13.50;51.00;;;;;;5075116;28;20115;-48
2022/04/21 07:38:02;;;;;;;7.93;5.30;;;13.50;50.90;;;;;;5080989;28;20047;-51
2022/04/21 07:40:29;;;;;;;11.80;5.18;;;13.60;50.50;;;;;;5080684;28;20052;-50
2022/04/21 07:42:57;;;;;;;8.10;4.70;;;13.70;50.10;;;;;;5085656;28;20039;-49
2022/04/21 07:45:25;;;;;;;8.20;5.53;;;13.70;49.80;;;;;;5080483;28;20075;-48
2022/04/21 07:47:51;;;;;;;10.40;5.07;;;13.80;49.80;;;;;;5071182;28;20036;-53
2022/04/21 07:50:18;;;;;;;10.63;6.18;;;13.80;49.60;;;;;;5070866;28;20041;-52
2022/04/21 07:53:14;;;;;;;7.40;5.03;;;13.90;49.60;;;;;;5086039;28;20115;-55
2022/04/21 07:55:42;;;;;;;7.53;5.05;;;13.90;49.60;;;;;;5074533;28;20047;-50
2022/04/21 07:58:09;;;;;;;7.40;5.40;;;14.00;49.60;;;;;;5091046;28;20491;-52
2022/04/21 08:00:38;;;;;;;9.75;5.43;;;14.00;49.70;;;;;;5088320;28;20087;-49
2022/04/21 08:03:10;;;;;;;8.52;5.45;;;14.10;49.90;;;;;;5087562;28;20135;-52
2022/04/21 08:05:37;;;;;;;8.30;5.75;;;14.10;49.40;;;;;;5074369;28;20051;-47
2022/04/21 08:08:04;;;;;;;7.43;5.47;;;14.10;49.70;;;;;;5070857;28;20098;-47
2022/04/21 08:10:31;;;;;;;10.57;4.97;;;14.20;49.80;;;;;;5077011;28;20044;-53
2022/04/21 08:12:59;;;;;;;7.65;5.22;;;14.20;49.70;;;;;;5075098;28;20376;-49
2022/04/21 08:15:29;;;;;;;7.72;5.00;;;14.30;49.50;;;;;;5072119;28;20032;-49
2022/04/21 08:17:57;;;;;;;7.45;5.53;;;14.40;49.60;;;;;;5084370;28;20407;-50
2022/04/21 08:20:26;;;;;;;10.15;5.57;;;14.40;49.50;;;;;;5081797;28;20116;-49
2022/04/21 08:22:53;;;;;;;9.00;5.40;;;14.50;49.40;;;;;;5075878;28;20115;-54
2022/04/21 08:34:16;;;;;;;7.45;4.20;;;14.70;48.80;;;;;;5079481;28;20415;-48
2022/04/21 08:36:48;;;;;;;;;;;14.80;48.90;;;;;;5088548;28;20047;-49
2022/04/21 08:39:15;;;;;;;6.43;4.65;;;14.80;48.50;;;;;;5081156;28;19920;-50
2022/04/21 08:41:50;;;;;;;6.40;4.43;;;14.90;48.50;;;;;;5085624;28;20048;-51
2022/04/21 08:44:19;;;;;;;7.22;5.25;;;14.90;48.50;;;;;;5087433;28;20075;-53
2022/04/21 08:46:47;;;;;;;5.72;5.03;;;15.00;48.70;;;;;;5083752;28;20488;-50
2022/04/21 08:49:21;;;;;;;8.50;5.18;;;15.00;48.60;;;;;;5081181;28;20541;-49
2022/04/21 08:51:48;;;;;;;6.68;5.28;;;15.10;48.40;;;;;;5072384;28;20048;-51
2022/04/21 08:54:15;;;;;;;8.02;5.45;;;15.10;48.20;;;;;;5088376;28;20076;-50
2022/04/21 08:56:42;;;;;;;7.88;5.07;;;15.20;48.20;;;;;;5082840;28;20068;-52
2022/04/21 08:59:11;;;;;;;7.40;5.63;;;15.20;48.00;;;;;;5086019;28;20075;-51
2022/04/21 09:01:38;;;;;;;8.13;5.32;;;15.20;47.90;;;;;;5082542;28;20067;-51
2022/04/21 09:04:05;;;;;;;7.35;5.38;;;15.30;47.60;;;;;;5070699;28;20052;-51
2022/04/21 09:06:37;;;;;;;8.55;5.22;;;15.30;47.70;;;;;;5084238;28;20096;-50
2022/04/21 09:09:17;;;;;;;6.82;5.25;;;15.40;48.90;;;;;;5082471;28;20064;-50
2022/04/21 09:11:45;;;;;;;6.95;5.38;;;15.50;48.10;;;;;;5069814;28;20071;-47
2022/04/21 09:14:16;;;;;;;9.52;5.50;;;15.50;47.70;;;;;;5069034;28;20559;-54
2022/04/21 09:16:44;;;;;;;6.47;5.47;;;15.60;47.80;;;;;;5080705;28;20048;-49
2022/04/21 09:19:14;;;;;;;9.95;5.20;;;15.60;47.90;;;;;;5079890;28;20078;-51
2022/04/21 09:21:41;;;;;;;5.55;4.45;;;15.60;47.70;;;;;;5081893;28;20048;-47
2022/04/21 09:24:25;;;;;;;7.32;4.75;;;15.70;47.30;;;;;;5087433;28;20086;-52
2022/04/21 09:26:53;;;;;;;6.35;4.97;;;15.70;46.90;;;;;;5083085;28;20121;-54
2022/04/21 09:29:30;;;;;;;7.30;5.43;;;15.70;46.80;;;;;;5079024;28;20125;-49
2022/04/21 09:31:59;;;;;;;6.20;4.65;;;15.80;46.20;;;;;;5070280;28;20041;-52
2022/04/21 09:34:37;;;;;;;6.32;4.28;;;15.80;46.40;;;;;;5073688;28;20525;-51
2022/04/21 09:37:06;;;;;;;7.63;4.10;;;15.80;46.00;;;;;;5085226;28;20115;-46
2022/04/21 09:39:52;;;;;;;5.07;3.33;;;15.90;45.90;;;;;;5072191;28;20128;-50
2022/04/21 09:42:26;;;;;;;5.35;3.38;;;16.00;45.10;;;;;;5089830;28;20040;-51
2022/04/21 09:48:01;;;;;;;5.38;3.15;;;16.10;44.10;;;;;;5077683;28;20050;-53
2022/04/21 09:50:32;;;;;;;3.97;3.10;;;16.20;43.60;;;;;;5068939;28;20041;-51
2022/04/21 09:53:02;;;;;;;6.05;3.33;;;16.20;43.40;;;;;;5071390;28;20823;-54
2022/04/21 09:55:34;;;;;;;3.10;2.78;;;16.20;43.50;;;;;;5085536;28;20032;-53
2022/04/21 09:58:08;;;;;;;2.75;2.55;;;16.30;42.90;;;;;;5081480;28;20036;-51
2022/04/21 10:00:37;;;;;;;4.97;2.53;;;16.40;42.50;;;;;;5086626;28;20079;-54
2022/04/21 10:03:05;;;;;;;4.45;2.70;;;16.50;41.70;;;;;;5082976;28;20040;-50
2022/04/21 10:05:33;;;;;;;3.88;2.70;;;16.50;42.20;;;;;;5079797;28;20050;-49
2022/04/21 10:08:01;;;;;;;2.55;2.20;;;16.50;42.10;;;;;;5082879;28;20085;-49
2022/04/21 10:10:29;;;;;;;3.45;2.80;;;16.60;41.90;;;;;;5086886;28;20119;-51
2022/04/21 10:12:57;;;;;;;4.85;2.65;;;16.70;41.30;;;;;;5078720;28;20036;-47
2022/04/21 10:15:24;;;;;;;4.38;2.20;;;16.70;41.20;;;;;;5058147;28;20446;-48
2022/04/21 10:17:51;;;;;;;4.28;2.30;;;16.80;40.90;;;;;;5059488;28;20048;-49
2022/04/21 10:20:24;;;;;;;3.13;2.10;;;16.90;40.90;;;;;;5080326;28;20089;-51
2022/04/21 10:22:52;;;;;;;3.63;2.40;;;16.90;40.90;;;;;;5086254;28;20036;-49
2022/04/21 10:25:19;;;;;;;2.45;2.20;;;17.00;41.20;;;;;;5077733;28;20048;-49
2022/04/21 10:27:47;;;;;;;2.83;2.05;;;17.10;40.70;;;;;;5076876;28;20083;-50
2022/04/21 10:30:15;;;;;;;2.60;2.35;;;17.10;40.30;;;;;;5066497;28;20049;-52
2022/04/21 10:32:49;;;;;;;3.20;2.10;;;17.20;40.00;;;;;;5080501;28;20769;-50
2022/04/21 10:35:28;;;;;;;3.17;1.92;;;17.20;39.40;;;;;;5080230;28;20098;-51
2022/04/21 10:38:13;;;;;;;3.78;1.98;;;17.40;38.80;;;;;;5084496;28;20090;-54
2022/04/21 10:40:58;;;;;;;1.52;1.40;;;17.40;39.50;;;;;;5072006;28;20115;-48
2022/04/21 10:43:24;;;;;;;2.85;1.63;;;17.50;39.20;;;;;;5090014;28;20109;-46
2022/04/21 10:46:05;;;;;;;3.03;2.00;;;17.50;39.20;;;;;;5079732;28;20055;-51
2022/04/21 10:48:42;;;;;;;3.22;1.90;;;17.60;38.50;;;;;;5088857;28;20032;-47
2022/04/21 10:51:10;;;;;;;3.38;1.60;;;17.60;38.70;;;;;;5087771;28;20047;-50
2022/04/21 11:00:03;;;;;;;3.35;1.92;;;17.80;38.90;;;;;;5042218;28;20079;-52
2022/04/21 11:02:44;;;;;;;8.85;2.17;;;17.90;39.20;;;;;;5079694;28;20051;-50
2022/04/21 11:05:23;;;;;;;6.78;2.33;;;18.00;39.20;;;;;;5091651;28;20040;-51
2022/04/21 11:07:58;;;;;;;3.83;2.40;;;18.00;38.80;;;;;;5085657;28;20097;-49
2022/04/21 11:10:29;;;;;;;2.88;2.08;;;18.10;38.40;;;;;;5085889;28;20762;-48
2022/04/21 11:12:55;;;;;;;5.00;2.58;;;18.20;38.30;;;;;;5080571;28;20032;-49
2022/04/21 11:15:44;;;;;;;5.70;2.80;;;18.30;38.70;;;;;;5074508;28;20044;-50
2022/04/21 11:18:31;;;;;;;3.72;2.15;;;18.40;37.90;;;;;;5086219;28;20039;-49
2022/04/21 11:21:28;;;;;;;4.07;2.42;;;18.50;37.90;;;;;;5058888;28;20048;-49
2022/04/21 11:23:58;;;;;;;4.88;2.47;;;18.70;37.70;;;;;;5078076;28;20089;-52
2022/04/21 11:26:26;;;;;;;3.20;2.67;;;18.80;38.30;;;;;;5086187;28;20071;-50
2022/04/21 11:28:52;;;;;;;3.83;2.33;;;18.90;38.90;;;;;;5087611;28;20040;-51
2022/04/21 11:31:21;;;;;;;2.35;2.00;;;19.10;37.90;;;;;;5083737;28;20055;-52
2022/04/21 11:33:48;;;;;;;3.15;2.13;;;19.30;38.10;;;;;;5086273;28;20041;-46
2022/04/21 11:36:15;;;;;;;2.47;2.28;;;19.50;38.30;;;;;;5085213;28;20523;-51
2022/04/21 11:38:52;;;;;;;3.47;2.47;;;19.70;38.20;;;;;;5082333;28;20044;-51
2022/04/21 11:41:18;;;;;;;3.47;2.67;;;19.90;37.90;;;;;;5080423;28;20762;-49
2022/04/21 11:43:50;;;;;;;4.68;3.17;;;20.10;37.10;;;;;;5085376;28;20900;-46
2022/04/21 11:46:20;;;;;;;3.90;2.70;;;20.40;36.50;;;;;;5086038;28;20052;-47
2022/04/21 11:48:57;;;;;;;3.45;2.25;;;20.40;35.80;;;;;;5085531;28;20068;-46
2022/04/21 11:51:27;;;;;;;6.50;2.50;;;20.50;35.60;;;;;;5090437;28;20036;-48
2022/04/21 11:53:55;;;;;;;4.80;2.28;;;20.60;36.20;;;;;;5091149;28;20089;-51
2022/04/21 11:56:22;;;;;;;3.58;2.53;;;20.60;36.00;;;;;;5084774;28;20056;-47
2022/04/21 11:58:49;;;;;;;2.92;2.47;;;20.70;35.70;;;;;;5084919;28;20036;-50
2022/04/21 12:06:58;;;;;;;2.35;1.75;;;20.70;35.10;;;;;;5083233;28;20037;-52
2022/04/21 12:09:27;;;;;;;3.43;1.90;;;20.70;34.70;;;;;;5070367;28;20044;-47
2022/04/21 12:11:58;;;;;;;2.75;1.90;;;20.70;34.20;;;;;;5091693;28;20362;-49
2022/04/21 12:14:26;;;;;;;2.67;1.85;;;20.70;33.90;;;;;;5084688;28;20114;-55
2022/04/21 12:17:00;;;;;;;2.17;1.85;;;20.70;34.00;;;;;;5080483;28;20032;-50
2022/04/21 12:19:34;;;;;;;1.98;1.80;;;20.70;33.70;;;;;;5087405;28;20131;-49
2022/04/21 12:22:18;;;;;;;3.13;2.38;;;20.70;34.20;;;;;;5081511;28;20040;-51
2022/04/21 12:24:52;;;;;;;4.18;2.03;;;20.70;33.90;;;;;;5082317;28;20059;-52
2022/04/21 12:27:26;;;;;;;3.97;1.90;;;20.80;34.10;;;;;;5094637;22;20076;-50
2022/04/21 12:29:58;;;;;;;4.63;1.98;;;20.80;34.10;;;;;;5067346;28;20559;-49
2022/04/21 12:32:30;;;;;;;4.13;1.83;;;21.00;34.20;;;;;;5066907;28;20093;-53
2022/04/21 12:34:58;;;;;;;;;;;21.00;34.40;;;;;;5066540;28;20087;-54
2022/04/21 12:37:27;;;;;;;3.17;2.30;;;21.10;34.90;;;;;;5051055;28;19977;-49
2022/04/21 12:39:55;;;;;;;2.35;1.98;;;21.20;34.50;;;;;;5049160;28;20048;-52
2022/04/21 12:42:41;;;;;;;2.67;2.28;;;21.30;34.10;;;;;;5067325;28;20045;-48
2022/04/21 12:45:09;;;;;;;3.83;1.90;;;21.30;34.20;;;;;;5068238;28;20071;-51
2022/04/21 12:47:50;;;;;;;2.85;2.25;;;21.40;34.10;;;;;;5041886;28;20049;-59
2022/04/21 12:50:24;;;;;;;3.20;2.38;;;21.50;34.30;;;;;;5033080;28;20535;-50
2022/04/21 12:52:57;;;;;;;4.32;2.08;;;21.50;34.20;;;;;;5044220;28;20561;-51
2022/04/21 12:55:30;;;;;;;2.65;2.10;;;21.60;34.20;;;;;;5051026;28;20146;-52
2022/04/21 12:57:58;;;;;;;3.92;2.30;;;21.60;34.50;;;;;;5053892;28;20037;-53
2022/04/21 13:00:26;;;;;;;3.90;2.08;;;21.70;34.20;;;;;;5063125;28;20106;-49
2022/04/21 13:02:53;;;;;;;2.45;1.85;;;21.90;35.20;;;;;;5044780;28;20053;-54
2022/04/21 13:05:19;;;;;;;4.47;2.05;;;22.00;35.30;;;;;;5049271;28;20048;-52
2022/04/21 13:07:46;;;;;;;3.15;2.00;;;22.10;34.60;;;;;;5049523;28;20138;-57
2022/04/21 13:10:13;;;;;;;4.10;2.40;;;22.10;34.30;;;;;;5042382;28;20048;-51
2022/04/21 13:12:40;;;;;;;3.03;2.05;;;22.20;34.30;;;;;;5059285;28;20102;-58
2022/04/21 13:15:07;;;;;;;2.53;1.88;;;22.30;34.40;;;;;;5063708;28;20033;-52
2022/04/21 13:17:34;;;;;;;3.58;2.70;;;22.40;34.60;;;;;;5052470;28;20040;-56
2022/04/21 13:20:01;;;;;;;5.82;3.30;;;22.60;34.60;;;;;;5057402;28;20040;-56
2022/04/21 13:22:28;;;;;;;4.30;2.35;;;22.70;34.60;;;;;;5058626;28;20044;-57
2022/04/21 13:24:55;;;;;;;2.78;2.45;;;22.80;33.70;;;;;;5060499;28;20055;-52
2022/04/21 13:27:23;;;;;;;4.45;2.35;;;23.00;33.90;;;;;;5044210;28;20051;-55
2022/04/21 13:29:50;;;;;;;5.47;2.83;;;23.10;33.70;;;;;;5053973;28;20033;-55
2022/04/21 13:35:03;;;;;;;3.60;2.55;;;23.30;33.80;;;;;;5057892;28;20071;-55
2022/04/21 13:37:30;;;;;;;6.22;2.47;;;23.50;33.90;;;;;;5058946;28;20037;-58
2022/04/21 13:39:59;;;;;;;3.95;2.97;;;23.80;33.90;;;;;;5057375;28;20152;-53
2022/04/21 13:42:26;;;;;;;3.05;2.53;;;24.10;33.40;;;;;;5063755;28;20045;-59
2022/04/21 13:44:53;;;;;;;6.43;2.55;;;24.60;34.50;;;;;;5054722;28;20180;-51
2022/04/21 13:47:40;;;;;;;3.58;2.85;;;25.20;34.10;;;;;;5056870;28;20111;-49
2022/04/21 13:50:07;;;;;;;5.10;2.95;;;25.80;32.60;;;;;;5058550;28;20553;-53
2022/04/21 13:52:37;;;;;;;5.47;2.58;;;26.20;32.10;;;;;;5059473;28;20040;-56
2022/04/21 13:55:05;;;;;;;6.55;2.65;;;26.70;32.00;;;;;;5060961;28;20547;-54
2022/04/21 13:57:31;;;;;;;4.30;2.28;;;27.10;31.60;;;;;;5052420;28;20040;-54
2022/04/21 13:59:58;;;;;;;2.92;2.22;;;27.90;31.70;;;;;;5061016;28;20072;-51